createdAt,value
2024-02-02T00:00:44.494Z,4.19
2024-02-02T00:03:12.698Z,4.22
2024-02-02T00:05:39.398Z,4.19
2024-02-02T00:08:06.439Z,4.16
2024-02-02T00:10:32.950Z,4.20
2024-02-02T00:12:59.478Z,4.22
2024-02-02T00:15:26.205Z,4.18
2024-02-02T00:17:52.849Z,4.12
2024-02-02T00:20:20.818Z,4.24
2024-02-02T00:22:50.697Z,4.25
2024-02-02T00:25:19.684Z,4.25
2024-02-02T00:27:46.265Z,4.28
2024-02-02T00:30:13.614Z,4.30
2024-02-02T00:32:40.693Z,4.25
2024-02-02T00:35:10.142Z,4.28
2024-02-02T00:37:38.177Z,4.25
2024-02-02T00:40:08.521Z,4.25
2024-02-02T00:42:36.444Z,4.24
2024-02-02T00:45:03.594Z,4.23
2024-02-02T00:47:30.383Z,4.25
2024-02-02T00:49:57.039Z,4.24
2024-02-02T00:52:23.501Z,4.27
2024-02-02T00:54:51.358Z,4.25
2024-02-02T00:57:17.958Z,4.27
2024-02-02T00:59:44.477Z,4.24
2024-02-02T01:02:11.005Z,4.25
2024-02-02T01:04:38.081Z,4.24
2024-02-02T01:07:05.705Z,4.22
2024-02-02T01:09:32.280Z,4.28
2024-02-02T01:12:00.338Z,4.28
2024-02-02T01:14:27.080Z,4.26
2024-02-02T01:16:54.252Z,4.27
2024-02-02T01:19:21.588Z,4.25
2024-02-02T01:21:48.233Z,4.27
2024-02-02T01:24:14.772Z,4.23
2024-02-02T01:26:41.288Z,4.23
2024-02-02T01:29:09.124Z,4.19
2024-02-02T01:31:35.647Z,4.18
2024-02-02T01:34:02.376Z,4.16
2024-02-02T01:36:29.018Z,4.17
2024-02-02T01:38:55.674Z,4.17
2024-02-02T01:41:22.300Z,4.16
2024-02-02T01:43:48.846Z,4.15
2024-02-02T01:46:16.808Z,4.14
2024-02-02T01:48:43.469Z,4.05
2024-02-02T01:51:13.009Z,4.07
2024-02-02T01:53:39.625Z,4.10
2024-02-02T01:56:07.204Z,4.12
2024-02-02T01:58:33.834Z,4.13
2024-02-02T02:01:00.813Z,4.10
2024-02-02T02:03:28.773Z,4.10
2024-02-02T02:05:55.803Z,4.11
2024-02-02T02:08:23.209Z,4.12
2024-02-02T02:10:50.920Z,4.10
2024-02-02T02:13:20.489Z,4.09
2024-02-02T02:15:47.060Z,4.05
2024-02-02T02:18:13.944Z,4.07
2024-02-02T02:20:43.165Z,4.04
2024-02-02T02:23:13.896Z,4.01
2024-02-02T02:25:40.708Z,4.03
2024-02-02T02:28:07.288Z,4.01
2024-02-02T02:30:34.019Z,3.99
2024-02-02T02:33:00.883Z,3.89
2024-02-02T02:35:29.692Z,3.91
2024-02-02T02:37:56.258Z,3.93
2024-02-02T02:40:24.227Z,3.96
2024-02-02T02:42:51.108Z,3.95
2024-02-02T02:45:18.088Z,3.97
2024-02-02T02:47:44.813Z,3.93
2024-02-02T02:50:11.503Z,3.87
2024-02-02T02:52:38.095Z,3.89
2024-02-02T02:55:05.113Z,3.93
2024-02-02T02:57:33.332Z,3.93
2024-02-02T02:59:59.921Z,3.94
2024-02-02T03:02:26.562Z,3.88
2024-02-02T03:04:53.210Z,3.90
2024-02-02T03:07:21.714Z,3.92
2024-02-02T03:09:48.534Z,3.88
2024-02-02T03:12:15.332Z,3.94
2024-02-02T03:14:43.289Z,3.87
2024-02-02T03:17:09.906Z,3.91
2024-02-02T03:19:36.548Z,3.89
2024-02-02T03:22:03.438Z,3.85
2024-02-02T03:24:30.077Z,3.84
2024-02-02T03:26:56.797Z,3.85
2024-02-02T03:29:23.366Z,3.82
2024-02-02T03:31:51.333Z,3.77
2024-02-02T03:34:18.004Z,3.73
2024-02-02T03:36:44.524Z,3.74
2024-02-02T03:39:11.277Z,3.78
2024-02-02T03:41:37.912Z,3.74
2024-02-02T03:44:04.666Z,3.78
2024-02-02T03:46:33.422Z,3.79
2024-02-02T03:49:01.636Z,3.81
2024-02-02T03:51:28.548Z,3.71
2024-02-02T03:53:57.563Z,3.70
2024-02-02T03:56:24.209Z,3.68
2024-02-02T03:58:50.908Z,3.58
2024-02-02T04:01:17.749Z,3.63
2024-02-02T04:03:46.842Z,3.66
2024-02-02T04:06:14.875Z,3.68
2024-02-02T04:08:43.932Z,3.62
2024-02-02T04:11:10.675Z,3.67
2024-02-02T04:13:38.482Z,3.67
2024-02-02T04:16:05.833Z,3.74
2024-02-02T04:18:32.623Z,3.70
2024-02-02T04:20:59.304Z,3.73
2024-02-02T04:23:27.297Z,3.80
2024-02-02T04:25:53.921Z,3.81
2024-02-02T04:28:23.083Z,3.73
2024-02-02T04:30:49.611Z,3.80
2024-02-02T04:33:16.223Z,3.82
2024-02-02T04:35:42.784Z,3.79
2024-02-02T04:38:09.283Z,3.79
2024-02-02T04:40:37.374Z,3.83
2024-02-02T04:43:04.290Z,3.87
2024-02-02T04:45:32.778Z,3.85
2024-02-02T04:47:59.517Z,3.81
2024-02-02T04:50:26.078Z,3.83
2024-02-02T04:52:52.645Z,3.87
2024-02-02T04:55:19.243Z,3.80
2024-02-02T04:57:47.139Z,3.84
2024-02-02T05:00:14.771Z,3.86
2024-02-02T05:02:41.461Z,3.85
2024-02-02T05:05:08.164Z,3.85
2024-02-02T05:07:36.269Z,3.83
2024-02-02T05:10:03.108Z,3.85
2024-02-02T05:12:29.687Z,3.85
2024-02-02T05:14:59.502Z,3.82
2024-02-02T05:17:26.037Z,3.86
2024-02-02T05:19:52.556Z,3.82
2024-02-02T05:22:19.222Z,3.86
2024-02-02T05:24:46.218Z,3.83
2024-02-02T05:27:12.950Z,3.85
2024-02-02T05:29:39.753Z,3.81
2024-02-02T05:32:07.897Z,3.82
2024-02-02T05:34:34.696Z,3.83
2024-02-02T05:37:01.444Z,3.83
2024-02-02T05:39:28.578Z,3.82
2024-02-02T05:41:55.121Z,3.85
2024-02-02T05:44:21.765Z,3.85
2024-02-02T05:46:48.229Z,3.85
2024-02-02T05:49:16.178Z,3.89
2024-02-02T05:52:03.313Z,3.90
2024-02-02T05:54:35.404Z,3.88
2024-02-02T05:57:02.068Z,3.95
2024-02-02T05:59:28.628Z,3.99
2024-02-02T06:01:55.272Z,3.95
2024-02-02T06:04:23.603Z,3.95
2024-02-02T06:06:50.294Z,4.04
2024-02-02T06:09:16.944Z,4.02
2024-02-02T06:11:43.531Z,4.04
2024-02-02T06:14:10.162Z,4.07
2024-02-02T06:16:43.303Z,4.06
2024-02-02T06:19:10.075Z,4.04
2024-02-02T06:21:38.099Z,4.13
2024-02-02T06:24:07.443Z,4.13
2024-02-02T06:26:33.992Z,4.16
2024-02-02T06:29:03.559Z,4.17
2024-02-02T06:31:30.128Z,4.17
2024-02-02T06:33:57.097Z,4.18
2024-02-02T06:36:23.759Z,4.17
2024-02-02T06:38:51.757Z,4.22
2024-02-02T06:41:18.411Z,4.22
2024-02-02T06:43:45.446Z,4.26
2024-02-02T06:46:12.067Z,4.27
2024-02-02T06:48:38.706Z,4.26
2024-02-02T06:51:05.842Z,4.30
2024-02-02T06:53:41.327Z,4.30
2024-02-02T06:56:35.500Z,4.33
2024-02-02T06:59:02.020Z,4.36
2024-02-02T07:01:29.059Z,4.37
2024-02-02T07:03:56.757Z,4.32
2024-02-02T07:06:23.809Z,4.36
2024-02-02T07:08:51.189Z,4.37
2024-02-02T07:11:45.484Z,4.38
2024-02-02T07:14:28.429Z,4.38
2024-02-02T07:16:54.915Z,4.40
2024-02-02T07:19:36.982Z,4.36
2024-02-02T07:22:04.656Z,4.36
2024-02-02T07:24:31.224Z,4.38
2024-02-02T07:26:59.734Z,4.39
2024-02-02T07:29:38.280Z,4.40
2024-02-02T07:32:05.920Z,4.39
2024-02-02T07:34:43.613Z,4.40
2024-02-02T07:40:50.089Z,4.42
2024-02-02T07:43:17.985Z,4.46
2024-02-02T07:45:44.527Z,4.47
2024-02-02T07:48:11.234Z,4.45
2024-02-02T07:50:37.854Z,4.49
2024-02-02T07:53:04.851Z,4.53
2024-02-02T07:55:31.438Z,4.54
2024-02-02T07:58:03.776Z,4.62
2024-02-02T08:00:32.248Z,4.67
2024-02-02T08:02:58.927Z,4.68
2024-02-02T08:05:27.995Z,4.75
2024-02-02T08:07:54.477Z,4.77
2024-02-02T08:10:22.846Z,4.82
2024-02-02T08:12:49.363Z,4.93
2024-02-02T08:15:15.848Z,4.97
2024-02-02T08:17:45.667Z,4.92
2024-02-02T08:20:12.638Z,4.99
2024-02-02T08:22:39.060Z,4.99
2024-02-02T08:25:05.625Z,4.93
2024-02-02T08:27:32.103Z,4.94
2024-02-02T08:30:00.788Z,4.91
2024-02-02T08:32:28.041Z,4.87
2024-02-02T08:34:56.503Z,4.86
2024-02-02T08:37:23.129Z,4.98
2024-02-02T08:39:50.914Z,5.07
2024-02-02T08:42:21.497Z,5.05
2024-02-02T08:44:48.338Z,5.02
2024-02-02T08:47:18.269Z,4.99
2024-02-02T08:49:49.026Z,4.91
2024-02-02T08:52:27.701Z,4.92
2024-02-02T08:54:55.939Z,4.84
2024-02-02T08:57:37.736Z,4.81
2024-02-02T09:00:15.842Z,4.70
2024-02-02T09:03:06.268Z,4.72
2024-02-02T09:05:49.110Z,4.85
2024-02-02T09:08:30.117Z,4.99
2024-02-02T09:11:16.855Z,4.96
2024-02-02T09:13:44.546Z,4.91
2024-02-02T09:16:14.102Z,4.89
2024-02-02T09:18:42.805Z,4.81
2024-02-02T09:21:09.614Z,4.85
2024-02-02T09:23:38.205Z,4.87
2024-02-02T09:26:10.691Z,4.86
2024-02-02T09:28:40.574Z,4.82
2024-02-02T09:31:08.225Z,4.94
2024-02-02T09:33:48.075Z,4.98
2024-02-02T09:36:15.382Z,4.96
2024-02-02T09:38:54.885Z,4.98
2024-02-02T09:42:00.005Z,5.08
2024-02-02T09:44:44.577Z,5.08
2024-02-02T09:47:35.142Z,5.18
2024-02-02T09:50:17.858Z,5.17
2024-02-02T09:53:01.374Z,5.20
2024-02-02T09:55:42.686Z,5.18
2024-02-02T09:58:25.109Z,5.17
2024-02-02T10:01:02.660Z,5.18
2024-02-02T10:03:39.627Z,5.26
2024-02-02T10:06:18.521Z,5.25
2024-02-02T10:09:06.549Z,5.23
2024-02-02T10:11:51.192Z,5.27
2024-02-02T10:14:34.807Z,5.36
2024-02-02T10:17:13.645Z,5.48
2024-02-02T10:20:06.074Z,5.55
2024-02-02T10:23:06.618Z,5.66
2024-02-02T10:25:53.557Z,5.88
2024-02-02T10:28:38.103Z,5.82
2024-02-02T10:31:25.363Z,5.84
2024-02-02T10:34:09.337Z,5.90
2024-02-02T10:36:47.745Z,5.92
2024-02-02T10:39:24.560Z,5.89
2024-02-02T10:42:11.820Z,5.89
2024-02-02T10:44:51.231Z,5.98
2024-02-02T10:47:34.486Z,6.06
2024-02-02T10:50:08.672Z,6.12
2024-02-02T10:52:46.765Z,6.12
2024-02-02T10:55:30.783Z,6.14
2024-02-02T10:58:04.933Z,6.19
2024-02-02T11:00:39.809Z,6.42
2024-02-02T11:03:22.110Z,6.53
2024-02-02T11:05:51.780Z,6.58
2024-02-02T11:08:25.422Z,6.54
2024-02-02T11:11:00.077Z,6.62
2024-02-02T11:13:44.280Z,6.63
2024-02-02T11:16:30.658Z,6.56
2024-02-02T11:19:18.119Z,6.55
2024-02-02T11:22:07.282Z,6.61
2024-02-02T11:24:40.875Z,6.63
2024-02-02T11:27:16.009Z,6.67
2024-02-02T11:29:54.772Z,6.71
2024-02-02T11:32:34.362Z,6.78
2024-02-02T11:35:10.645Z,6.79
2024-02-02T11:37:51.734Z,6.79
2024-02-02T11:40:20.361Z,6.79
2024-02-02T11:42:49.002Z,6.84
2024-02-02T11:45:24.636Z,6.84
2024-02-02T11:47:58.813Z,6.82
2024-02-02T11:50:29.976Z,6.81
2024-02-02T11:53:11.451Z,6.77
2024-02-02T11:55:41.740Z,6.75
2024-02-02T11:58:17.806Z,6.81
2024-02-02T12:01:17.575Z,6.80
2024-02-02T12:04:06.827Z,6.75
2024-02-02T12:06:45.382Z,6.82
2024-02-02T12:09:17.199Z,6.92
2024-02-02T12:11:49.356Z,7.03
2024-02-02T12:14:22.263Z,7.00
2024-02-02T12:16:48.802Z,7.05
2024-02-02T12:19:16.793Z,7.07
2024-02-02T12:21:43.391Z,6.98
2024-02-02T12:24:12.721Z,6.98
2024-02-02T12:26:39.433Z,6.94
2024-02-02T12:29:06.297Z,6.91
2024-02-02T12:31:32.877Z,6.85
2024-02-02T12:33:59.544Z,6.86
2024-02-02T12:36:29.318Z,6.88
2024-02-02T12:38:58.511Z,6.94
2024-02-02T12:41:25.182Z,6.95
2024-02-02T12:43:51.861Z,6.95
2024-02-02T12:46:18.390Z,6.97
2024-02-02T12:48:44.907Z,7.02
2024-02-02T12:51:11.494Z,7.06
2024-02-02T12:53:39.533Z,7.02
2024-02-02T12:56:06.450Z,7.07
2024-02-02T12:58:33.233Z,7.08
2024-02-02T13:01:02.711Z,7.09
2024-02-02T13:03:38.149Z,7.05
2024-02-02T13:06:10.584Z,7.11
2024-02-02T13:08:39.367Z,7.15
2024-02-02T13:11:06.297Z,7.16
2024-02-02T13:13:33.135Z,7.18
2024-02-02T13:15:59.703Z,7.20
2024-02-02T13:18:26.708Z,7.23
2024-02-02T13:20:54.482Z,7.30
2024-02-02T13:23:23.163Z,7.31
2024-02-02T13:25:54.902Z,7.35
2024-02-02T13:28:24.782Z,7.39
2024-02-02T13:30:57.013Z,7.34
2024-02-02T13:33:30.159Z,7.46
2024-02-02T13:35:57.767Z,7.46
2024-02-02T13:38:24.521Z,7.44
2024-02-02T13:40:54.333Z,7.54
2024-02-02T13:43:21.025Z,7.49
2024-02-02T13:45:47.873Z,7.65
2024-02-02T13:48:17.821Z,7.70
2024-02-02T13:50:45.534Z,7.62
2024-02-02T13:53:12.129Z,7.65
2024-02-02T13:55:41.134Z,7.65
2024-02-02T13:58:09.066Z,7.68
2024-02-02T14:00:37.565Z,7.62
2024-02-02T14:03:08.408Z,7.70
2024-02-02T14:05:37.089Z,7.71
2024-02-02T14:08:08.138Z,7.68
2024-02-02T14:10:45.381Z,7.74
2024-02-02T14:13:14.641Z,7.77
2024-02-02T14:15:43.131Z,7.81
2024-02-02T14:18:12.167Z,7.79
2024-02-02T14:20:38.891Z,7.79
2024-02-02T14:23:12.328Z,7.82
2024-02-02T14:25:39.769Z,7.84
2024-02-02T14:28:15.190Z,8.00
2024-02-02T14:30:41.844Z,7.99
2024-02-02T14:33:17.508Z,8.01
2024-02-02T14:35:53.039Z,8.00
2024-02-02T14:38:19.853Z,8.07
2024-02-02T14:40:46.540Z,8.03
2024-02-02T14:43:17.173Z,8.07
2024-02-02T14:45:43.760Z,8.00
2024-02-02T14:48:12.317Z,8.00
2024-02-02T14:50:41.746Z,7.96
2024-02-02T14:53:08.197Z,8.02
2024-02-02T14:55:34.849Z,7.94
2024-02-02T14:58:01.614Z,7.95
2024-02-02T15:00:29.476Z,7.95
2024-02-02T15:02:55.915Z,7.90
2024-02-02T15:05:22.441Z,7.86
2024-02-02T15:07:48.982Z,7.92
2024-02-02T15:10:15.584Z,7.87
2024-02-02T15:12:42.541Z,7.86
2024-02-02T15:15:09.435Z,7.84
2024-02-02T15:17:37.313Z,7.71
2024-02-02T15:20:04.483Z,7.70
2024-02-02T15:22:31.082Z,7.77
2024-02-02T15:24:57.589Z,7.77
2024-02-02T15:27:24.129Z,7.70
2024-02-02T15:29:50.596Z,7.66
2024-02-02T15:32:17.136Z,7.68
2024-02-02T15:34:45.663Z,7.67
2024-02-02T15:37:16.187Z,7.63
2024-02-02T15:39:46.331Z,7.61
2024-02-02T15:42:12.911Z,7.65
2024-02-02T15:44:39.432Z,7.71
2024-02-02T15:47:06.362Z,7.71
2024-02-02T15:49:33.095Z,7.80
2024-02-02T15:52:01.071Z,7.78
2024-02-02T15:54:27.554Z,7.81
2024-02-02T15:56:54.054Z,7.84
2024-02-02T15:59:20.539Z,7.82
2024-02-02T16:01:47.255Z,7.82
2024-02-02T16:04:14.199Z,7.79
2024-02-02T16:06:41.060Z,7.78
2024-02-02T16:09:11.296Z,7.75
2024-02-02T16:11:37.919Z,7.73
2024-02-02T16:14:04.454Z,7.76
2024-02-02T16:16:30.941Z,7.71
2024-02-02T16:19:00.756Z,7.62
2024-02-02T16:21:27.353Z,7.62
2024-02-02T16:23:53.977Z,7.56
2024-02-02T16:26:40.909Z,7.50
2024-02-02T16:29:13.346Z,7.51
2024-02-02T16:31:42.715Z,7.49
2024-02-02T16:34:12.874Z,7.47
2024-02-02T16:36:44.975Z,7.40
2024-02-02T16:39:15.558Z,7.44
2024-02-02T16:41:45.208Z,7.53
2024-02-02T16:44:12.313Z,7.55
2024-02-02T16:46:43.183Z,7.58
2024-02-02T16:49:10.059Z,7.61
2024-02-02T16:51:37.672Z,7.72
2024-02-02T16:54:16.619Z,7.78
2024-02-02T16:56:47.402Z,7.81
2024-02-02T16:59:14.064Z,7.87
2024-02-02T17:01:40.715Z,7.90
2024-02-02T17:04:07.600Z,7.92
2024-02-02T17:06:34.591Z,7.89
2024-02-02T17:09:01.570Z,7.82
2024-02-02T17:11:28.095Z,7.68
2024-02-02T17:13:59.148Z,7.45
2024-02-02T17:16:25.891Z,7.36
2024-02-02T17:18:52.667Z,7.18
2024-02-02T17:21:20.826Z,7.17
2024-02-02T17:23:47.447Z,7.06
2024-02-02T17:26:14.799Z,6.96
2024-02-02T17:28:41.448Z,6.87
2024-02-02T17:31:10.617Z,6.81
2024-02-02T17:33:37.449Z,6.76
2024-02-02T17:36:08.839Z,6.72
2024-02-02T17:38:35.413Z,6.69
2024-02-02T17:41:02.023Z,6.73
2024-02-02T17:43:35.318Z,6.81
2024-02-02T17:46:07.664Z,6.85
2024-02-02T17:48:38.755Z,6.91
2024-02-02T17:51:06.056Z,6.97
2024-02-02T17:53:33.856Z,7.04
2024-02-02T17:56:04.122Z,6.96
2024-02-02T17:58:31.031Z,6.99
2024-02-02T18:00:57.811Z,7.03
2024-02-02T18:03:24.642Z,7.02
2024-02-02T18:05:52.576Z,7.07
2024-02-02T18:08:19.516Z,7.10
2024-02-02T18:10:46.342Z,7.05
2024-02-02T18:13:12.859Z,7.05
2024-02-02T18:15:39.583Z,7.08
2024-02-02T18:18:06.871Z,7.10
2024-02-02T18:20:33.541Z,7.09
2024-02-02T18:23:01.660Z,7.27
2024-02-02T18:25:28.200Z,7.36
2024-02-02T18:27:54.729Z,7.34
2024-02-02T18:30:21.354Z,7.42
2024-02-02T18:32:47.931Z,7.51
2024-02-02T18:35:14.636Z,7.55
2024-02-02T18:37:41.153Z,7.67
2024-02-02T18:40:12.190Z,7.66
2024-02-02T18:42:47.678Z,7.70
2024-02-02T18:45:16.057Z,7.73
2024-02-02T18:47:42.709Z,7.70
2024-02-02T18:50:09.885Z,7.74
2024-02-02T18:52:36.557Z,7.82
2024-02-02T18:55:03.155Z,7.83
2024-02-02T18:57:46.265Z,7.83
2024-02-02T19:00:13.974Z,7.82
2024-02-02T19:02:40.880Z,7.90
2024-02-02T19:05:08.621Z,7.90
2024-02-02T19:07:35.350Z,7.86
2024-02-02T19:10:02.036Z,7.89
2024-02-02T19:12:28.748Z,7.85
2024-02-02T19:14:56.858Z,7.84
2024-02-02T19:17:24.155Z,7.83
2024-02-02T19:19:51.251Z,7.82
2024-02-02T19:22:18.050Z,7.86
2024-02-02T19:24:44.876Z,7.79
2024-02-02T19:27:16.190Z,7.83
2024-02-02T19:29:44.547Z,7.82
2024-02-02T19:32:12.680Z,7.81
2024-02-02T19:34:40.471Z,7.78
2024-02-02T19:37:07.485Z,7.76
2024-02-02T19:39:34.044Z,7.73
2024-02-02T19:42:00.585Z,7.76
2024-02-02T19:44:32.090Z,7.76
2024-02-02T19:47:06.423Z,7.70
2024-02-02T19:49:35.479Z,7.71
2024-02-02T19:52:03.129Z,7.70
2024-02-02T19:54:29.997Z,7.67
2024-02-02T19:56:56.714Z,7.66
2024-02-02T19:59:26.102Z,7.68
2024-02-02T20:01:55.546Z,7.73
2024-02-02T20:04:25.361Z,7.66
2024-02-02T20:06:56.188Z,7.62
2024-02-02T20:09:26.503Z,7.62
2024-02-02T20:11:53.259Z,7.59
2024-02-02T20:14:23.028Z,7.60
2024-02-02T20:16:54.546Z,7.63
2024-02-02T20:19:33.494Z,7.58
2024-02-02T20:22:03.935Z,7.60
2024-02-02T20:24:32.881Z,7.60
2024-02-02T20:26:59.644Z,7.56
2024-02-02T20:29:26.245Z,7.54
2024-02-02T20:31:54.184Z,7.59
2024-02-02T20:34:25.757Z,7.56
2024-02-02T20:36:54.945Z,7.54
2024-02-02T20:39:34.050Z,7.56
2024-02-02T20:42:00.664Z,7.53
2024-02-02T20:44:27.225Z,7.53
2024-02-02T20:46:54.077Z,7.57
2024-02-02T20:49:26.776Z,7.54
2024-02-02T20:52:01.764Z,7.58
2024-02-02T20:54:32.127Z,7.56
2024-02-02T20:56:58.706Z,7.51
2024-02-02T20:59:25.209Z,7.55
2024-02-02T21:01:56.992Z,7.52
2024-02-02T21:04:23.737Z,7.58
2024-02-02T21:06:55.375Z,7.50
2024-02-02T21:09:28.401Z,7.51
2024-02-02T21:11:56.529Z,7.54
2024-02-02T21:14:25.200Z,7.55
2024-02-02T21:16:57.311Z,7.59
2024-02-02T21:19:24.309Z,7.52
2024-02-02T21:21:57.517Z,7.60
2024-02-02T21:24:28.063Z,7.58
2024-02-02T21:27:03.971Z,7.56
2024-02-02T21:29:30.525Z,7.65
2024-02-02T21:31:59.231Z,7.65
2024-02-02T21:34:28.964Z,7.72
2024-02-02T21:36:55.641Z,7.72
2024-02-02T21:39:25.487Z,7.74
2024-02-02T21:41:56.630Z,7.78
2024-02-02T21:44:24.851Z,7.79
2024-02-02T21:46:51.629Z,7.84
2024-02-02T21:49:18.360Z,7.88
2024-02-02T21:51:45.581Z,7.84
2024-02-02T21:54:16.211Z,7.85
2024-02-02T21:56:44.627Z,7.81
2024-02-02T21:59:12.590Z,7.85
2024-02-02T22:01:42.108Z,7.81
2024-02-02T22:04:10.773Z,7.71
2024-02-02T22:06:40.461Z,7.64
2024-02-02T22:09:07.287Z,7.58
2024-02-02T22:11:36.561Z,7.49
2024-02-02T22:14:05.144Z,7.54
2024-02-02T22:16:33.935Z,7.52
2024-02-02T22:19:02.909Z,7.47
2024-02-02T22:21:30.179Z,7.50
2024-02-02T22:24:00.127Z,7.50
2024-02-02T22:26:38.100Z,7.52
2024-02-02T22:29:04.949Z,7.50
2024-02-02T22:31:37.967Z,7.54
2024-02-02T22:34:07.876Z,7.54
2024-02-02T22:36:38.564Z,7.55
2024-02-02T22:39:08.140Z,7.54
2024-02-02T22:41:36.696Z,7.62
2024-02-02T22:44:03.360Z,7.60
2024-02-02T22:46:31.198Z,7.62
2024-02-02T22:48:59.514Z,7.55
2024-02-02T22:51:26.684Z,7.63
2024-02-02T22:53:55.943Z,7.62
2024-02-02T22:56:22.690Z,7.64
2024-02-02T22:58:49.430Z,7.62
2024-02-02T23:01:16.279Z,7.69
2024-02-02T23:03:43.284Z,7.68
2024-02-02T23:06:13.687Z,7.65
2024-02-02T23:08:40.498Z,7.68
2024-02-02T23:11:07.079Z,7.69
2024-02-02T23:13:33.601Z,7.71
2024-02-02T23:16:00.460Z,7.65
2024-02-02T23:18:27.197Z,7.73
2024-02-02T23:20:53.843Z,7.69
2024-02-02T23:23:21.844Z,7.72
2024-02-02T23:25:48.360Z,7.71
2024-02-02T23:28:14.911Z,7.74
2024-02-02T23:30:41.433Z,7.70
2024-02-02T23:33:11.169Z,7.68
2024-02-02T23:35:40.427Z,7.75
2024-02-02T23:38:07.155Z,7.74
2024-02-02T23:40:35.160Z,7.73
2024-02-02T23:43:01.789Z,7.77
2024-02-02T23:45:28.577Z,7.77
2024-02-02T23:47:55.096Z,7.76
2024-02-02T23:50:21.723Z,7.78
2024-02-02T23:52:48.190Z,7.80
2024-02-02T23:55:14.984Z,7.74
2024-02-02T23:57:42.994Z,7.72
